Time;durP1;ratioP1;P1;durP2;ratioP2;P2;SDS_P1;SDS_P2;PMS_P1;PMS_P2;Temp;Humidity;BMP_temperature;BMP_pressure;BME280_temperature;BME280_humidity;BME280_pressure;Samples;Min_cycle;Max_cycle;Signal;HPM_P1;HPM_P2
2022/05/24 00:00:31;;;;;;;13.30;5.75;;;;;;;8.64;82.52;99541.77;1700757;84;21782;-76
2022/05/24 00:03:38;;;;;;;17.37;6.40;;;;;;;8.62;82.42;99539.76;1699919;84;21205;-77
2022/05/24 00:06:43;;;;;;;13.25;6.20;;;;;;;8.59;82.25;99527.84;1697552;84;21277;-77
2022/05/24 00:09:50;;;;;;;10.93;5.83;;;;;;;8.59;81.89;99530.56;1699353;84;21194;-77
2022/05/24 00:12:54;;;;;;;8.85;5.20;;;;;;;8.57;81.35;99530.77;1699894;84;21244;-76
2022/05/24 00:16:00;;;;;;;16.17;5.65;;;;;;;8.60;80.72;99533.10;1699831;84;21249;-76
2022/05/24 00:19:06;;;;;;;8.75;5.70;;;;;;;8.62;80.09;99534.30;1699513;84;21229;-77
2022/05/24 00:22:12;;;;;;;15.03;6.28;;;;;;;8.62;79.50;99537.03;1700676;84;21773;-77
2022/05/24 00:25:17;;;;;;;9.23;5.37;;;;;;;8.62;79.05;99532.94;1700731;84;21178;-76
2022/05/24 00:28:24;;;;;;;13.48;6.50;;;;;;;8.61;78.59;99529.86;1700605;83;21731;-77
2022/05/24 00:31:30;;;;;;;15.53;6.10;;;;;;;8.62;78.25;99535.67;1700734;84;21194;-77
2022/05/24 00:34:35;;;;;;;14.00;5.55;;;;;;;8.60;77.89;99533.63;1700642;84;21178;-77
2022/05/24 00:37:40;;;;;;;14.95;6.40;;;;;;;8.58;77.47;99533.81;1699428;84;21221;-77
2022/05/24 00:41:22;;;;;;;11.88;5.80;;;;;;;8.58;77.02;99532.97;1699306;84;21173;-77
2022/05/24 00:44:35;;;;;;;11.55;5.60;;;;;;;8.58;76.58;99534.33;1700921;84;21186;-77
2022/05/24 00:47:48;;;;;;;9.23;5.67;;;;;;;8.56;76.20;99531.80;1700420;84;21221;-77
2022/05/24 00:50:53;;;;;;;14.28;6.08;;;;;;;8.53;75.87;99529.42;1680782;84;21711;-77
2022/05/24 00:54:01;;;;;;;13.38;6.08;;;;;;;8.52;75.31;99526.89;1699366;84;21296;-77
2022/05/24 00:57:20;;;;;;;10.70;5.50;;;;;;;8.51;74.69;99531.47;1700612;83;21819;-77
2022/05/24 01:00:27;;;;;;;7.83;5.03;;;;;;;8.50;74.11;99527.05;1697654;83;21188;-77
2022/05/24 01:03:34;;;;;;;12.18;5.12;;;;;;;8.47;73.60;99523.35;1718335;83;21201;-76
2022/05/24 01:06:39;;;;;;;14.73;5.62;;;;;;;8.47;73.15;99536.09;1714116;83;21201;-76
2022/05/24 01:10:09;;;;;;;9.63;5.47;;;;;;;8.44;72.83;99532.72;1704471;84;21763;-76
2022/05/24 01:13:24;;;;;;;12.15;5.35;;;;;;;8.43;72.35;99537.84;1707205;84;21217;-77
2022/05/24 01:16:30;;;;;;;17.75;5.83;;;;;;;8.40;71.89;99536.83;1706309;84;21805;-77
2022/05/24 01:19:49;;;;;;;7.90;4.45;;;;;;;8.37;71.61;99532.25;1705634;84;21722;-77
2022/05/24 01:23:14;;;;;;;13.88;4.62;;;;;;;8.31;71.38;99535.16;1724173;83;21228;-77
2022/05/24 01:26:42;;;;;;;9.50;4.50;;;;;;;8.20;71.18;99530.98;1690835;83;21962;-76
2022/05/24 01:29:47;;;;;;;9.63;5.28;;;;;;;8.11;71.20;99529.85;1690410;84;21193;-77
2022/05/24 01:36:16;;;;;;;13.95;5.12;;;;;;;8.01;71.09;99523.79;1713494;83;21217;-76
2022/05/24 01:39:21;;;;;;;11.40;5.17;;;;;;;7.96;70.89;99528.41;1718568;83;21743;-76
2022/05/24 01:42:30;;;;;;;15.98;5.15;;;;;;;7.94;70.72;99531.29;1754208;82;21805;-77
2022/05/24 01:45:42;;;;;;;16.27;5.17;;;;;;;7.93;70.51;99529.60;1730663;82;21169;-76
2022/05/24 01:49:03;;;;;;;10.70;5.53;;;;;;;7.92;70.37;99537.44;1746267;81;21240;-77
2022/05/24 01:52:19;;;;;;;9.65;4.90;;;;;;;7.91;70.06;99535.75;1728766;81;21725;-77
2022/05/24 01:55:36;;;;;;;10.30;4.53;;;;;;;7.90;69.65;99535.91;1740206;82;21165;-77
2022/05/24 01:58:41;;;;;;;8.98;4.60;;;;;;;7.92;69.29;99542.05;1730866;82;21188;-76
2022/05/24 02:02:01;;;;;;;9.15;4.30;;;;;;;7.93;68.87;99535.05;1692676;82;21173;-77
2022/05/24 02:05:06;;;;;;;9.95;3.92;;;;;;;7.97;68.50;99539.63;1689847;82;21823;-76
2022/05/24 02:08:13;;;;;;;6.22;3.85;;;;;;;8.00;68.09;99542.01;1719437;82;21738;-77
2022/05/24 02:11:19;;;;;;;9.13;3.90;;;;;;;8.07;67.59;99543.48;1741973;82;21852;-76
2022/05/24 02:14:32;;;;;;;9.20;3.67;;;;;;;8.14;67.08;99543.97;1736592;82;21188;-76
2022/05/24 02:18:00;;;;;;;12.13;4.15;;;;;;;8.32;66.70;99549.63;1750679;82;21168;-83
2022/05/24 02:21:06;;;;;;;9.80;4.08;;;;;;;8.67;65.91;99546.35;1731509;82;21172;-77
2022/05/24 02:24:25;;;;;;;8.13;3.60;;;;;;;9.18;64.68;99548.47;1686519;85;21228;-77
2022/05/24 02:27:31;;;;;;;8.05;4.12;;;;;;;9.70;63.00;99555.22;1708992;83;21214;-77
2022/05/24 02:30:38;;;;;;;11.08;3.70;;;;;;;10.27;60.83;99552.81;1713412;82;21225;-77
2022/05/24 02:33:43;;;;;;;6.53;3.65;;;;;;;10.77;59.49;99554.58;1749430;81;21791;-77
2022/05/24 02:36:49;;;;;;;6.05;3.55;;;;;;;11.23;57.55;99561.82;1728987;82;21204;-77
2022/05/24 02:43:17;;;;;;;7.33;3.10;;;;;;;12.20;54.07;99560.95;1719055;83;21744;-77
2022/05/24 02:46:26;;;;;;;5.12;3.10;;;;;;;12.68;52.09;99564.99;1720643;82;21140;-77
2022/05/24 02:49:31;;;;;;;6.67;3.12;;;;;;;13.07;50.63;99569.36;1716182;83;21187;-77
2022/05/24 02:52:37;;;;;;;7.17;3.02;;;;;;;13.47;49.31;99570.24;1712483;83;21209;-77
2022/05/24 02:55:43;;;;;;;9.93;2.87;;;;;;;13.83;48.07;99573.02;1676866;84;21167;-77
2022/05/24 02:58:50;;;;;;;6.50;2.55;;;;;;;14.18;47.20;99573.55;1703355;82;21590;-77
2022/05/24 03:01:57;;;;;;;10.82;2.70;;;;;;;14.47;46.17;99577.11;1713498;83;21173;-77
2022/05/24 03:05:04;;;;;;;11.03;2.80;;;;;;;14.72;45.72;99576.37;1706278;83;21212;-77
2022/05/24 03:14:14;;;;;;;5.08;2.47;;;;;;;15.12;45.58;99574.73;1711585;81;21233;-77
2022/05/24 03:14:42;;;;;;;4.30;2.70;;;;;;;15.16;45.59;99574.06;1660196;86;21196;-77
2022/05/24 03:17:48;;;;;;;3.77;2.60;;;;;;;15.18;45.21;99573.83;1663824;85;21217;-77
2022/05/24 03:20:53;;;;;;;6.75;3.00;;;;;;;15.22;44.98;99581.95;1703970;82;21212;-77
2022/05/24 03:23:59;;;;;;;5.20;3.35;;;;;;;15.30;45.10;99581.69;1699138;83;21729;-77
2022/05/24 03:27:08;;;;;;;5.67;3.00;;;;;;;15.51;45.54;99581.81;1724166;83;21208;-77
2022/05/24 03:30:13;;;;;;;7.12;3.08;;;;;;;15.76;45.63;99584.05;1718081;82;21178;-77
2022/05/24 03:33:18;;;;;;;7.80;2.80;;;;;;;16.02;45.36;99588.42;1733055;82;21184;-77
2022/05/24 03:36:24;;;;;;;6.67;3.10;;;;;;;16.26;44.96;99590.80;1716028;81;21772;-76
2022/05/24 03:39:24;;;;;;;6.83;3.22;;;;;;;16.50;44.67;99588.17;1686813;85;21194;-77
2022/05/24 03:42:16;;;;;;;5.83;2.70;;;;;;;16.75;44.48;99588.06;1714554;82;21196;-77
2022/05/24 03:45:22;;;;;;;13.35;2.92;;;;;;;16.82;44.12;99591.59;1716736;82;21169;-77
2022/05/24 03:48:27;;;;;;;13.58;3.20;;;;;;;16.66;44.70;99590.30;1716388;82;21216;-77
2022/05/24 03:51:34;;;;;;;11.73;2.87;;;;;;;16.47;45.24;99592.80;1708176;82;21177;-77
2022/05/24 03:54:39;;;;;;;5.37;2.92;;;;;;;16.10;44.90;99595.02;1722582;83;21189;-77
2022/05/24 03:58:00;;;;;;;9.55;3.15;;;;;;;15.94;45.70;99598.91;1732047;81;21196;-77
2022/05/24 04:01:06;;;;;;;5.95;2.67;;;;;;;15.89;45.34;99595.46;1714509;82;21161;-78
2022/05/24 04:04:12;;;;;;;4.67;2.47;;;;;;;15.84;44.81;99596.14;1718283;82;21224;-77
2022/05/24 04:07:19;;;;;;;6.67;2.75;;;;;;;15.90;45.49;99597.14;1720274;81;21229;-77
2022/05/24 04:10:24;;;;;;;7.25;2.60;;;;;;;15.90;45.88;99601.81;1716965;82;21224;-77
2022/05/24 04:13:29;;;;;;;3.17;2.05;;;;;;;15.85;45.15;99602.50;1698474;83;21785;-77
2022/05/24 04:16:35;;;;;;;6.62;2.30;;;;;;;15.85;43.59;99602.50;1721568;83;21241;-77
2022/05/24 04:19:41;;;;;;;3.75;2.22;;;;;;;15.72;43.84;99614.52;1727877;81;21208;-77
2022/05/24 04:22:48;;;;;;;3.77;1.80;;;;;;;15.57;42.33;99612.59;1737150;81;21853;-77
2022/05/24 04:25:46;;;;;;;5.08;2.65;;;;;;;15.44;43.12;99612.73;1716944;83;21164;-77
2022/05/24 04:28:56;;;;;;;5.37;2.25;;;;;;;15.34;43.01;99612.70;1714907;83;21231;-77
2022/05/24 04:32:01;;;;;;;3.05;1.90;;;;;;;15.37;43.61;99616.91;1716581;83;21181;-77
2022/05/24 04:35:07;;;;;;;6.05;2.12;;;;;;;15.52;43.49;99624.30;1718990;83;21563;-77
2022/05/24 04:38:13;;;;;;;6.20;2.92;;;;;;;15.68;42.74;99624.31;1710360;83;21168;-77
2022/05/24 04:44:42;;;;;;;4.00;2.62;;;;;;;15.93;41.62;99628.95;1696031;83;21746;-77
2022/05/24 04:47:49;;;;;;;7.60;2.33;;;;;;;16.01;41.77;99633.64;1718484;81;21602;-77
2022/05/24 04:51:04;;;;;;;9.13;1.98;;;;;;;16.05;42.51;99626.59;1695642;84;21173;-77
2022/05/24 04:54:09;;;;;;;3.40;2.00;;;;;;;16.19;42.34;99626.45;1695367;84;21694;-77
2022/05/24 04:57:14;;;;;;;5.97;2.00;;;;;;;16.31;42.24;99632.88;1738257;81;21773;-77
2022/05/24 05:00:20;;;;;;;4.28;2.00;;;;;;;16.45;41.81;99638.55;1706162;83;21263;-77
2022/05/24 05:03:28;;;;;;;2.90;2.02;;;;;;;16.64;42.07;99634.39;1708935;83;21773;-77
2022/05/24 05:06:33;;;;;;;3.30;1.80;;;;;;;16.91;42.23;99637.68;1726366;81;21192;-77
2022/05/24 05:09:40;;;;;;;13.40;2.27;;;;;;;17.17;41.02;99643.34;1691977;82;21165;-78
2022/05/24 05:12:47;;;;;;;4.25;2.05;;;;;;;17.39;39.81;99648.64;1709292;82;21251;-83
2022/05/24 05:15:53;;;;;;;3.15;1.70;;;;;;;17.48;39.70;99643.61;1693950;83;21253;-83
2022/05/24 05:18:59;;;;;;;2.62;1.40;;;;;;;17.59;40.80;99647.77;1700600;83;21806;-77
2022/05/24 05:22:05;;;;;;;4.08;1.85;;;;;;;17.72;39.55;99645.33;1696048;84;21765;-77
2022/05/24 05:25:11;;;;;;;5.00;1.98;;;;;;;17.76;39.58;99645.73;1725919;81;21641;-77
2022/05/24 05:28:18;;;;;;;5.58;2.02;;;;;;;17.80;38.58;99651.09;1701421;83;21224;-77
2022/05/24 05:31:30;;;;;;;2.90;1.55;;;;;;;17.82;35.11;99649.75;1708727;81;21194;-77
2022/05/24 05:34:34;;;;;;;4.20;1.92;;;;;;;17.83;36.88;99656.98;1724848;83;21795;-77
2022/05/24 05:37:39;;;;;;;6.60;1.92;;;;;;;17.87;36.32;99654.56;1725341;83;21194;-77
2022/05/24 05:40:44;;;;;;;5.75;1.82;;;;;;;17.84;36.51;99654.52;1745209;81;21196;-77
2022/05/24 05:43:50;;;;;;;4.17;1.80;;;;;;;17.78;33.90;99649.92;1784161;78;21517;-78
2022/05/24 05:46:56;;;;;;;7.08;1.95;;;;;;;17.83;32.75;99653.36;1791197;80;21695;-77
2022/05/24 05:50:01;;;;;;;4.75;1.62;;;;;;;17.91;32.47;99657.16;1782933;80;21162;-77
2022/05/24 05:53:07;;;;;;;2.20;1.70;;;;;;;18.01;31.09;99657.39;1790536;78;21189;-77
2022/05/24 05:56:14;;;;;;;4.03;2.02;;;;;;;18.02;31.05;99661.00;1773946;80;21177;-77
2022/05/24 05:59:20;;;;;;;3.02;1.22;;;;;;;18.03;29.36;99656.63;1786670;80;21205;-77
2022/05/24 06:02:26;;;;;;;5.40;1.70;;;;;;;18.08;29.40;99658.67;1766099;80;21217;-77
2022/05/24 06:05:33;;;;;;;4.40;1.67;;;;;;;18.18;29.74;99663.59;1792335;80;21164;-77
2022/05/24 06:08:38;;;;;;;4.08;1.82;;;;;;;18.26;29.85;99664.63;1789109;80;21192;-78
2022/05/24 06:11:45;;;;;;;5.83;1.50;;;;;;;18.36;29.94;99659.31;1787401;80;21415;-78
2022/05/24 06:14:51;;;;;;;3.22;1.72;;;;;;;18.45;30.32;99657.85;1784785;80;21158;-78
2022/05/24 06:17:57;;;;;;;7.40;2.20;;;;;;;18.48;31.29;99658.73;1768198;80;21172;-77
2022/05/24 06:21:03;;;;;;;3.65;1.65;;;;;;;18.67;30.27;99668.27;1786519;80;21548;-77
2022/05/24 06:24:14;;;;;;;6.85;1.82;;;;;;;18.65;30.39;99669.36;1770813;80;21242;-77
2022/05/24 06:27:19;;;;;;;4.40;1.50;;;;;;;18.59;30.37;99662.03;1782105;80;21751;-77
2022/05/24 06:30:25;;;;;;;2.72;1.47;;;;;;;18.79;30.53;99660.26;1783962;80;21169;-77
2022/05/24 06:33:30;;;;;;;6.62;1.50;;;;;;;18.95;30.02;99665.55;1783397;80;21731;-78
2022/05/24 06:36:35;;;;;;;5.62;1.67;;;;;;;19.12;28.80;99663.69;1784327;80;21197;-77
2022/05/24 06:39:40;;;;;;;3.45;1.70;;;;;;;19.25;28.43;99665.32;1785627;80;21306;-77
2022/05/24 06:42:46;;;;;;;5.20;1.67;;;;;;;19.46;28.45;99668.45;1785259;80;21190;-78
2022/05/24 06:45:52;;;;;;;7.17;2.02;;;;;;;19.50;27.71;99671.87;1782115;80;21151;-77
2022/05/24 06:48:46;;;;;;;3.00;1.60;;;;;;;19.60;27.30;99673.45;1780059;80;21812;-78
2022/05/24 06:51:52;;;;;;;3.75;1.77;;;;;;;19.77;27.06;99678.19;1777808;79;21173;-77
2022/05/24 06:54:58;;;;;;;3.50;1.72;;;;;;;19.84;27.21;99672.75;1762519;80;21186;-77
2022/05/24 06:58:03;;;;;;;7.62;1.75;;;;;;;19.99;27.81;99669.38;1761389;80;21190;-78
2022/05/24 07:04:38;;;;;;;2.62;1.60;;;;;;;20.05;27.38;99668.93;1754843;81;22085;-78
2022/05/24 07:07:36;;;;;;;3.77;1.70;;;;;;;20.11;28.32;99665.97;1774247;80;21241;-77
2022/05/24 07:10:43;;;;;;;3.77;1.90;;;;;;;20.12;27.50;99668.19;1775943;80;21203;-78
2022/05/24 07:13:49;;;;;;;3.33;1.57;;;;;;;20.04;27.62;99668.09;1785531;79;21568;-78
2022/05/24 07:16:55;;;;;;;10.03;1.77;;;;;;;20.01;27.32;99663.59;1785027;79;21128;-77
2022/05/24 07:20:03;;;;;;;6.37;2.00;;;;;;;20.10;28.69;99664.84;1775493;80;21563;-78
2022/05/24 07:23:26;;;;;;;9.88;2.10;;;;;;;20.26;28.25;99663.13;1777814;80;21225;-77
2022/05/24 07:26:32;;;;;;;3.05;1.70;;;;;;;20.49;28.82;99663.48;1754051;81;21547;-77
2022/05/24 07:29:39;;;;;;;4.10;1.82;;;;;;;20.71;27.95;99667.67;1740157;82;21209;-78
2022/05/24 07:32:45;;;;;;;6.03;1.82;;;;;;;20.87;28.72;99666.75;1760454;80;21783;-77
2022/05/24 07:35:51;;;;;;;5.83;1.80;;;;;;;21.04;27.68;99668.91;1772875;80;21220;-77
2022/05/24 07:38:58;;;;;;;2.20;1.30;;;;;;;21.12;25.45;99666.20;1758067;80;21676;-77
2022/05/24 07:48:52;;;;;;;1.75;1.37;;;;;;;20.89;24.87;99663.18;1732542;82;21217;-78
2022/05/24 07:51:50;;;;;;;6.25;1.62;;;;;;;20.78;25.29;99661.35;1719573;83;21201;-77
2022/05/24 07:54:55;;;;;;;2.25;1.40;;;;;;;20.76;25.92;99664.95;1717802;83;21168;-77
2022/05/24 07:58:01;;;;;;;3.08;1.90;;;;;;;20.82;26.46;99661.97;1702197;84;22234;-77
2022/05/24 08:01:00;;;;;;;9.95;1.75;;;;;;;20.95;26.33;99661.30;1733195;81;21225;-77
2022/05/24 08:03:52;;;;;;;3.35;1.65;;;;;;;20.98;25.83;99665.76;1729776;82;21193;-77
2022/05/24 08:06:57;;;;;;;4.75;2.12;;;;;;;20.83;25.23;99662.80;1727155;82;21181;-77
2022/05/24 08:10:03;;;;;;;4.22;1.70;;;;;;;20.60;25.75;99655.02;1729717;82;21189;-78
2022/05/24 08:13:15;;;;;;;5.75;1.60;;;;;;;20.60;25.96;99661.12;1721527;82;21548;-78
2022/05/24 08:16:21;;;;;;;4.67;1.60;;;;;;;20.63;25.57;99660.06;1726252;82;21201;-83
2022/05/24 08:19:26;;;;;;;3.87;1.92;;;;;;;20.55;25.60;99663.28;1721144;82;21158;-77
2022/05/24 08:22:31;;;;;;;6.78;1.67;;;;;;;20.65;25.57;99663.44;1703190;83;21188;-77
2022/05/24 08:25:37;;;;;;;5.10;1.80;;;;;;;20.71;25.35;99664.89;1728969;82;22189;-77
2022/05/24 08:28:43;;;;;;;5.37;1.70;;;;;;;20.62;25.67;99667.28;1731111;82;21158;-77
2022/05/24 08:31:49;;;;;;;4.37;1.70;;;;;;;20.61;25.77;99658.66;1721775;82;22112;-77
2022/05/24 08:34:55;;;;;;;6.85;1.70;;;;;;;20.65;25.37;99664.83;1729781;82;21177;-78
2022/05/24 08:37:56;;;;;;;5.12;1.80;;;;;;;20.65;26.48;99669.52;1725216;82;21193;-78
2022/05/24 08:41:10;;;;;;;1.52;1.30;;;;;;;20.53;26.41;99668.27;1728158;82;21177;-79
2022/05/24 08:48:30;;;;;;;6.12;1.70;;;;;;;20.45;26.44;99676.17;1760269;80;21177;-77
2022/05/24 08:51:36;;;;;;;3.77;1.75;;;;;;;20.46;26.10;99671.73;1785210;80;21296;-78
2022/05/24 08:54:50;;;;;;;6.97;1.80;;;;;;;20.49;26.58;99672.66;1736791;82;21225;-77
2022/05/24 08:58:01;;;;;;;4.72;1.90;;;;;;;20.66;27.27;99672.06;1789824;80;21493;-78
2022/05/24 09:01:06;;;;;;;5.58;1.57;;;;;;;20.77;26.86;99671.63;1787149;80;21118;-78
2022/05/24 09:04:16;;;;;;;12.88;2.15;;;;;;;20.79;27.31;99668.59;1778113;80;21681;-78
2022/05/24 09:07:54;;;;;;;3.33;1.80;;;;;;;20.79;27.24;99674.14;1778637;79;21177;-78
2022/05/24 09:11:29;;;;;;;10.35;1.87;;;;;;;20.99;26.78;99674.41;1783989;80;21164;-77
2022/05/24 09:15:13;;;;;;;5.50;1.70;;;;;;;21.22;26.57;99675.20;1787214;79;21177;-78
2022/05/24 09:18:46;;;;;;;3.70;2.00;;;;;;;21.34;25.91;99670.36;1793265;78;21711;-78
2022/05/24 09:21:47;;;;;;;2.83;1.60;;;;;;;21.40;25.73;99677.09;1787663;79;21186;-78
2022/05/24 09:25:01;;;;;;;6.10;1.62;;;;;;;21.51;26.79;99678.62;1731513;81;21698;-77
2022/05/24 09:28:06;;;;;;;5.72;1.92;;;;;;;21.37;25.66;99679.03;1738610;80;21801;-77
2022/05/24 09:31:12;;;;;;;5.37;1.80;;;;;;;21.22;26.70;99671.89;1772081;80;21190;-77
2022/05/24 09:34:40;;;;;;;3.15;1.80;;;;;;;21.01;26.50;99675.53;1764256;79;21126;-77
2022/05/24 09:37:48;;;;;;;3.45;1.70;;;;;;;20.81;26.98;99671.97;1769035;79;21236;-78
2022/05/24 09:41:04;;;;;;;6.90;2.22;;;;;;;20.66;26.88;99668.45;1794366;79;21162;-78
2022/05/24 09:44:13;;;;;;;4.47;1.95;;;;;;;20.63;27.20;99667.01;1789969;79;21270;-78
2022/05/24 09:47:40;;;;;;;3.10;1.70;;;;;;;20.67;27.52;99662.62;1793309;79;21732;-78
2022/05/24 09:50:48;;;;;;;8.55;1.95;;;;;;;20.67;26.44;99659.84;1735212;82;21695;-78
2022/05/24 09:53:59;;;;;;;8.43;1.80;;;;;;;20.71;27.61;99654.62;1780097;80;21690;-77
2022/05/24 09:57:17;;;;;;;5.60;2.25;;;;;;;20.89;28.52;99660.40;1786319;80;21125;-78
2022/05/24 10:00:27;;;;;;;7.25;1.80;;;;;;;21.22;29.06;99662.69;1793066;80;21252;-78
2022/05/24 10:03:42;;;;;;;2.02;1.50;;;;;;;21.45;27.71;99656.83;1786525;78;21156;-78
2022/05/24 10:06:51;;;;;;;3.90;1.65;;;;;;;21.64;27.97;99658.16;1780134;79;21181;-78
2022/05/24 10:10:10;;;;;;;6.77;1.93;;;;;;;21.74;26.47;99656.01;1789685;80;22117;-79
2022/05/24 10:13:34;;;;;;;7.22;1.60;;;;;;;21.72;25.24;99646.23;1793652;78;21194;-79
2022/05/24 10:16:51;;;;;;;7.95;1.80;;;;;;;21.68;26.26;99657.88;1792922;80;21232;-79
2022/05/24 10:20:22;;;;;;;5.83;2.20;;;;;;;21.67;25.91;99656.21;1781015;80;21158;-79
2022/05/24 10:23:45;;;;;;;4.42;1.67;;;;;;;21.64;26.50;99657.28;1793823;78;21193;-78
2022/05/24 10:27:08;;;;;;;2.17;1.50;;;;;;;21.70;26.69;99653.47;1762547;80;21201;-79
2022/05/24 10:30:20;;;;;;;7.97;1.50;;;;;;;21.74;26.45;99662.97;1786439;80;21157;-79
2022/05/24 10:40:45;;;;;;;7.78;1.70;;;;;;;21.55;26.07;99669.48;1742857;82;21153;-79
2022/05/24 10:44:07;;;;;;;7.80;2.00;;;;;;;21.50;25.83;99665.26;1776320;79;21240;-84
2022/05/24 10:47:45;;;;;;;2.87;1.55;;;;;;;21.57;25.98;99668.64;1777229;80;21695;-79
2022/05/24 10:51:01;;;;;;;4.22;2.15;;;;;;;21.72;25.98;99658.76;1785154;80;21191;-84
2022/05/24 10:54:10;;;;;;;8.28;2.00;;;;;;;21.71;26.24;99671.00;1773726;80;21975;-78
2022/05/24 10:57:29;;;;;;;7.25;1.80;;;;;;;21.48;26.10;99666.05;1794058;80;21178;-79
2022/05/24 11:00:44;;;;;;;9.75;2.02;;;;;;;21.12;26.91;99673.98;1796477;80;22079;-79
2022/05/24 11:03:58;;;;;;;5.58;1.90;;;;;;;20.85;27.76;99677.30;1778702;80;21619;-78
2022/05/24 11:07:14;;;;;;;8.78;1.80;;;;;;;20.63;27.29;99672.56;1772760;80;21133;-77
2022/05/24 11:10:39;;;;;;;4.22;1.72;;;;;;;20.49;28.54;99671.81;1773304;80;21165;-78
2022/05/24 11:13:59;;;;;;;3.55;1.90;;;;;;;20.28;27.90;99663.17;1725130;82;21705;-78
2022/05/24 11:17:04;;;;;;;5.28;2.08;;;;;;;20.13;28.86;99669.87;1709286;82;21212;-78
2022/05/24 11:20:04;;;;;;;6.20;1.82;;;;;;;20.04;30.24;99663.93;1710383;83;21137;-78
2022/05/24 11:23:21;;;;;;;3.60;1.65;;;;;;;19.90;30.29;99675.05;1717251;82;21238;-79
2022/05/24 11:26:27;;;;;;;11.25;1.95;;;;;;;19.82;31.20;99680.50;1700726;83;21682;-78
2022/05/24 11:29:30;;;;;;;4.37;1.60;;;;;;;19.86;31.04;99679.45;1698532;83;21233;-79
2022/05/24 11:32:29;;;;;;;3.25;1.60;;;;;;;19.98;30.78;99676.03;1711640;82;21158;-76
2022/05/24 11:35:35;;;;;;;7.33;2.02;;;;;;;20.15;30.75;99678.25;1769414;80;21670;-77
2022/05/24 11:38:44;;;;;;;5.85;1.77;;;;;;;20.28;30.14;99677.58;1773096;80;21176;-78
2022/05/24 11:41:49;;;;;;;4.50;1.80;;;;;;;20.30;29.89;99681.80;1776494;80;21127;-78
2022/05/24 11:44:49;;;;;;;7.53;1.75;;;;;;;20.35;30.09;99681.03;1775774;80;21189;-78
2022/05/24 11:48:06;;;;;;;3.10;1.50;;;;;;;20.47;29.81;99676.77;1776139;78;21153;-78
2022/05/24 11:51:48;;;;;;;4.00;2.05;;;;;;;20.63;29.78;99667.56;1728675;82;21126;-78
2022/05/24 11:54:56;;;;;;;;;;;;;;;20.73;28.96;99667.69;1748667;80;21217;-78
2022/05/24 11:58:02;;;;;;;5.37;1.92;;;;;;;20.72;28.91;99670.18;1761637;79;20209;-77
2022/05/24 12:01:26;;;;;;;5.12;1.80;;;;;;;20.64;29.39;99661.73;1741590;80;21146;-84
2022/05/24 12:08:14;;;;;;;3.85;1.90;;;;;;;20.58;29.86;99666.95;1696605;82;21183;-78
2022/05/24 12:11:26;;;;;;;5.83;2.12;;;;;;;20.64;29.38;99656.73;1690171;84;21209;-77
2022/05/24 12:14:46;;;;;;;5.47;2.02;;;;;;;20.57;28.95;99659.72;1765029;80;21135;-78
2022/05/24 12:17:53;;;;;;;12.40;2.02;;;;;;;20.35;29.18;99657.42;1746139;79;21169;-77
2022/05/24 12:21:01;;;;;;;4.92;2.00;;;;;;;20.26;29.72;99654.80;1764208;81;21122;-78
2022/05/24 12:24:26;;;;;;;4.55;1.57;;;;;;;20.31;30.15;99647.92;1757710;81;21719;-77
2022/05/24 12:27:54;;;;;;;4.87;1.70;;;;;;;20.29;29.64;99665.40;1755761;81;21168;-78
2022/05/24 12:31:01;;;;;;;3.55;1.60;;;;;;;20.22;30.12;99666.11;1733348;82;21145;-77
2022/05/24 12:34:14;;;;;;;5.03;1.60;;;;;;;20.17;30.14;99658.55;1763966;80;21744;-78
2022/05/24 12:37:36;;;;;;;12.43;2.22;;;;;;;20.21;30.38;99656.11;1732226;81;21172;-78
2022/05/24 12:40:41;;;;;;;5.08;1.57;;;;;;;20.27;30.18;99652.30;1755686;81;21157;-77
2022/05/24 12:44:03;;;;;;;6.28;1.70;;;;;;;20.35;29.55;99656.03;1763333;80;21165;-77
2022/05/24 12:47:18;;;;;;;6.95;1.75;;;;;;;20.43;29.39;99656.98;1720338;82;21228;-77
2022/05/24 12:50:36;;;;;;;3.17;1.80;;;;;;;20.47;29.68;99648.47;1767291;79;21742;-78
2022/05/24 12:53:41;;;;;;;6.80;1.90;;;;;;;20.52;28.93;99654.09;1687331;83;21200;-77
2022/05/24 12:56:46;;;;;;;5.75;1.80;;;;;;;20.58;28.57;99652.22;1729782;83;21171;-78
2022/05/24 13:00:00;;;;;;;2.35;1.50;;;;;;;20.62;29.68;99652.83;1730915;83;21169;-77
2022/05/24 13:03:08;;;;;;;4.05;1.87;;;;;;;20.61;29.75;99648.38;1720489;81;21733;-77
2022/05/24 13:06:15;;;;;;;3.92;1.90;;;;;;;20.58;30.04;99657.77;1742702;82;21816;-77
2022/05/24 13:09:34;;;;;;;3.42;1.72;;;;;;;20.53;29.41;99650.21;1743773;82;21204;-77
2022/05/24 13:12:39;;;;;;;3.40;1.65;;;;;;;20.55;29.95;99656.89;1703982;82;21216;-78
2022/05/24 13:16:01;;;;;;;8.45;1.90;;;;;;;20.64;30.04;99658.95;1676269;84;21188;-78
2022/05/24 13:19:07;;;;;;;4.05;1.30;;;;;;;20.78;29.30;99659.97;1739388;82;21736;-77
2022/05/24 13:22:13;;;;;;;8.23;1.82;;;;;;;20.83;28.51;99657.24;1726418;82;21874;-77
2022/05/24 13:25:25;;;;;;;3.55;1.70;;;;;;;20.74;28.49;99665.75;1740908;82;21197;-78
2022/05/24 13:28:59;;;;;;;6.42;2.10;;;;;;;20.63;28.70;99660.06;1739490;82;21778;-78
2022/05/24 13:35:32;;;;;;;3.65;1.80;;;;;;;20.39;30.01;99669.70;1740835;82;21766;-77
2022/05/24 13:38:39;;;;;;;7.03;1.98;;;;;;;20.31;29.93;99665.97;1730148;82;21185;-77
2022/05/24 13:41:47;;;;;;;3.80;1.50;;;;;;;20.28;30.78;99663.70;1698637;83;21726;-77
2022/05/24 13:45:17;;;;;;;11.38;2.05;;;;;;;20.27;29.72;99666.19;1735336;82;21225;-77
2022/05/24 13:48:34;;;;;;;5.92;2.10;;;;;;;20.26;30.97;99669.52;1730879;81;21226;-77
2022/05/24 13:51:41;;;;;;;10.20;1.60;;;;;;;20.15;29.99;99667.14;1707171;82;21273;-78
2022/05/24 13:54:47;;;;;;;7.65;1.80;;;;;;;20.00;30.52;99665.53;1707355;84;21801;-78
2022/05/24 13:58:13;;;;;;;10.85;1.65;;;;;;;19.85;30.33;99661.09;1731655;81;21237;-78
2022/05/24 14:01:34;;;;;;;2.98;1.67;;;;;;;19.75;30.96;99667.88;1723006;82;21530;-78
2022/05/24 14:04:43;;;;;;;4.58;1.62;;;;;;;19.64;30.58;99666.32;1730211;82;21165;-78
2022/05/24 14:07:48;;;;;;;5.60;1.90;;;;;;;19.60;31.29;99672.07;1672716;82;21617;-78
2022/05/24 14:10:54;;;;;;;3.85;1.98;;;;;;;19.57;31.26;99668.40;1727893;82;21161;-78
2022/05/24 14:14:00;;;;;;;6.37;1.30;;;;;;;19.52;31.24;99672.44;1722623;82;21169;-78
2022/05/24 14:17:09;;;;;;;5.12;1.82;;;;;;;19.49;31.66;99672.97;1708953;82;21161;-78
2022/05/24 14:20:08;;;;;;;3.60;1.75;;;;;;;19.44;30.25;99670.10;1755911;81;21186;-77
2022/05/24 14:23:13;;;;;;;6.03;1.82;;;;;;;19.43;29.96;99665.63;1756326;81;21197;-77
2022/05/24 14:26:13;;;;;;;9.78;1.85;;;;;;;19.41;30.22;99662.27;1743860;82;21150;-77
2022/05/24 14:29:11;;;;;;;4.22;1.50;;;;;;;19.41;31.44;99669.20;1743705;82;21791;-77
2022/05/24 14:32:04;;;;;;;8.70;1.85;;;;;;;19.39;31.74;99662.53;1743566;82;21226;-77
2022/05/24 14:35:11;;;;;;;4.40;1.98;;;;;;;19.35;32.26;99670.21;1738960;82;21181;-83
2022/05/24 14:38:18;;;;;;;5.00;1.80;;;;;;;19.29;32.01;99668.41;1743425;81;21205;-85
2022/05/24 14:41:25;;;;;;;9.00;1.57;;;;;;;19.25;31.40;99670.03;1743612;82;21213;-84
2022/05/24 14:44:39;;;;;;;9.98;2.25;;;;;;;19.23;31.83;99676.34;1743987;82;21798;-84
2022/05/24 14:47:42;;;;;;;4.85;2.10;;;;;;;19.21;31.76;99680.77;1739309;81;21189;-84
2022/05/24 14:50:49;;;;;;;6.72;2.25;;;;;;;19.18;32.29;99685.95;1730884;82;21164;-84
2022/05/24 14:53:56;;;;;;;4.85;2.20;;;;;;;19.19;32.52;99677.92;1762558;80;21229;-84
2022/05/24 14:57:03;;;;;;;7.35;2.25;;;;;;;19.20;32.32;99683.25;1763766;80;21202;-84
2022/05/24 15:00:11;;;;;;;6.70;2.72;;;;;;;19.19;29.85;99684.31;1765723;80;21157;-84
2022/05/24 15:03:18;;;;;;;4.85;2.55;;;;;;;19.15;30.46;99677.61;1778138;79;21516;-84
2022/05/24 15:06:18;;;;;;;1.70;1.55;;;;;;;19.15;30.50;99683.16;1774333;80;21182;-84
2022/05/24 15:16:13;;;;;;;3.12;2.00;;;;;;;19.21;30.36;99686.31;1767022;80;21157;-84
2022/05/24 15:19:18;;;;;;;8.28;1.62;;;;;;;19.22;30.43;99681.05;1771589;80;21149;-85
2022/05/24 15:22:23;;;;;;;6.05;1.80;;;;;;;19.21;32.64;99686.31;1793604;78;21586;-84
2022/05/24 15:25:32;;;;;;;9.00;1.87;;;;;;;19.20;34.28;99694.34;1790881;80;21157;-84
2022/05/24 15:28:39;;;;;;;4.50;2.20;;;;;;;19.18;34.35;99697.05;1790340;78;21574;-84
2022/05/24 15:31:44;;;;;;;4.70;1.92;;;;;;;19.13;34.78;99705.55;1771488;80;21496;-84
2022/05/24 15:34:51;;;;;;;6.78;2.00;;;;;;;19.10;34.75;99706.06;1762677;80;21152;-84
2022/05/24 15:37:57;;;;;;;3.58;1.87;;;;;;;19.09;33.97;99704.91;1778619;78;21322;-84
2022/05/24 15:41:07;;;;;;;6.15;2.08;;;;;;;19.10;32.49;99707.45;1788655;80;21380;-84